Time;durP1;ratioP1;P1;durP2;ratioP2;P2;SDS_P1;SDS_P2;PMS_P1;PMS_P2;Temp;Humidity;BMP_temperature;BMP_pressure;BME280_temperature;BME280_humidity;BME280_pressure;Samples;Min_cycle;Max_cycle;Signal;HPM_P1;HPM_P2
2023/10/04 00:00:27;;;;;;;5.35;4.30;;;;;;;;;;6164654;23;20404;-78
2023/10/04 00:02:54;;;;;;;7.18;4.45;;;;;;;;;;6188673;23;20038;-78
2023/10/04 00:05:21;;;;;;;8.10;4.78;;;;;;;;;;6164643;23;20070;-78
2023/10/04 00:07:47;;;;;;;6.65;4.88;;;;;;;;;;6164208;23;20038;-77
2023/10/04 00:10:14;;;;;;;5.10;4.60;;;;;;;;;;6214198;23;20023;-78
2023/10/04 00:12:41;;;;;;;7.32;4.60;;;;;;;;;;6164601;23;20480;-79
2023/10/04 00:15:13;;;;;;;4.97;4.30;;;;;;;;;;6214543;23;20019;-78
2023/10/04 00:17:42;;;;;;;6.20;4.30;;;;;;;;;;6240545;22;20017;-80
2023/10/04 00:20:10;;;;;;;8.70;4.43;;;;;;;;;;6211503;23;20012;-78
2023/10/04 00:22:40;;;;;;;7.55;5.10;;;;;;;;;;6198433;23;20143;-78
2023/10/04 00:25:11;;;;;;;6.78;4.88;;;;;;;;;;6190030;23;20126;-78
2023/10/04 00:27:40;;;;;;;9.77;4.45;;;;;;;;;;6166850;23;20008;-78
2023/10/04 00:30:10;;;;;;;6.82;4.45;;;;;;;;;;6241887;22;20050;-79
2023/10/04 00:32:36;;;;;;;8.20;4.82;;;;;;;;;;6166620;23;20012;-79
2023/10/04 00:35:09;;;;;;;6.65;4.10;;;;;;;;;;6191042;23;20091;-78
2023/10/04 00:37:36;;;;;;;9.50;4.35;;;;;;;;;;6191244;23;20020;-79
2023/10/04 00:40:09;;;;;;;5.82;4.35;;;;;;;;;;6165059;23;20118;-78
2023/10/04 00:42:35;;;;;;;5.88;4.32;;;;;;;;;;6240738;23;20008;-78
2023/10/04 00:45:02;;;;;;;5.20;4.68;;;;;;;;;;6214865;23;20008;-78
2023/10/04 00:47:29;;;;;;;5.70;4.60;;;;;;;;;;6240731;23;20008;-79
2023/10/04 00:50:14;;;;;;;12.02;4.70;;;;;;;;;;6237637;23;20023;-79
2023/10/04 00:52:46;;;;;;;17.92;4.55;;;;;;;;;;6167927;23;20065;-79
2023/10/04 00:55:14;;;;;;;4.93;4.22;;;;;;;;;;6168287;23;20099;-78
2023/10/04 00:57:40;;;;;;;4.93;3.95;;;;;;;;;;6166042;23;20074;-80
2023/10/04 01:00:09;;;;;;;8.70;5.40;;;;;;;;;;6167474;23;20415;-81
2023/10/04 01:02:36;;;;;;;9.65;4.93;;;;;;;;;;6169476;23;20020;-80
2023/10/04 01:05:03;;;;;;;8.32;4.38;;;;;;;;;;6194520;23;20027;-80
2023/10/04 01:07:30;;;;;;;6.85;3.65;;;;;;;;;;6169392;23;20012;-80
2023/10/04 01:09:56;;;;;;;5.13;3.75;;;;;;;;;;6241673;23;20024;-77
2023/10/04 01:12:23;;;;;;;5.78;4.25;;;;;;;;;;6167856;23;20461;-78
2023/10/04 01:15:03;;;;;;;;;;;;;;;;;;6195098;23;20023;-78
2023/10/04 01:17:32;;;;;;;9.75;3.92;;;;;;;;;;6198576;23;19908;-81
2023/10/04 01:19:58;;;;;;;7.35;5.07;;;;;;;;;;6174267;23;20019;-79
2023/10/04 01:22:26;;;;;;;8.02;4.68;;;;;;;;;;6196129;23;20480;-79
2023/10/04 01:25:19;;;;;;;5.63;4.97;;;;;;;;;;6226322;23;20416;-80
2023/10/04 01:27:54;;;;;;;8.25;4.90;;;;;;;;;;6198331;23;20015;-82
2023/10/04 01:30:20;;;;;;;6.18;5.20;;;;;;;;;;6224724;23;20028;-79
2023/10/04 01:32:50;;;;;;;6.97;5.47;;;;;;;;;;6173997;23;20016;-80
2023/10/04 01:35:18;;;;;;;6.32;4.80;;;;;;;;;;6197176;23;20012;-80
2023/10/04 01:37:46;;;;;;;8.32;5.63;;;;;;;;;;6171579;23;20012;-79
2023/10/04 01:40:12;;;;;;;9.77;5.40;;;;;;;;;;6252307;23;20031;-80
2023/10/04 01:42:45;;;;;;;8.40;5.13;;;;;;;;;;6253171;23;20012;-81
2023/10/04 01:45:18;;;;;;;6.55;4.82;;;;;;;;;;6232875;23;20008;-78
2023/10/04 01:47:45;;;;;;;10.27;5.33;;;;;;;;;;6188887;23;20012;-79
2023/10/04 01:50:12;;;;;;;7.30;4.93;;;;;;;;;;6263650;23;20024;-80
2023/10/04 01:52:38;;;;;;;8.82;5.57;;;;;;;;;;6262747;23;20023;-79
2023/10/04 01:55:29;;;;;;;7.80;5.95;;;;;;;;;;6206445;23;20016;-81
2023/10/04 01:57:57;;;;;;;9.23;4.70;;;;;;;;;;6230605;23;20027;-81
2023/10/04 02:00:33;;;;;;;6.05;5.40;;;;;;;;;;6202697;23;20012;-80
2023/10/04 02:03:03;;;;;;;8.25;5.18;;;;;;;;;;6207244;23;20020;-80
2023/10/04 02:05:37;;;;;;;4.07;3.70;;;;;;;;;;6188160;23;20072;-81
2023/10/04 02:08:09;;;;;;;5.85;5.07;;;;;;;;;;6188121;23;20075;-82
2023/10/04 02:10:35;;;;;;;7.93;5.35;;;;;;;;;;6184488;23;20027;-81
2023/10/04 02:13:06;;;;;;;6.00;4.75;;;;;;;;;;6204432;23;20038;-81
2023/10/04 02:15:35;;;;;;;6.07;4.78;;;;;;;;;;6233709;23;20087;-82
2023/10/04 02:18:01;;;;;;;6.53;5.32;;;;;;;;;;6182166;23;20027;-81
2023/10/04 02:20:31;;;;;;;8.27;5.45;;;;;;;;;;6209865;23;20017;-82
2023/10/04 02:22:58;;;;;;;11.38;5.40;;;;;;;;;;6184069;23;20020;-81
2023/10/04 02:25:41;;;;;;;8.73;4.82;;;;;;;;;;6178944;23;20023;-79
2023/10/04 02:28:17;;;;;;;7.22;5.15;;;;;;;;;;6229189;23;20012;-79
2023/10/04 02:33:42;;;;;;;7.93;4.63;;;;;;;;;;6234229;23;20008;-80
2023/10/04 02:36:20;;;;;;;9.10;5.35;;;;;;;;;;6209669;23;20020;-82
2023/10/04 02:39:11;;;;;;;7.72;4.68;;;;;;;;;;6205743;23;20004;-82
2023/10/04 02:41:41;;;;;;;6.05;5.25;;;;;;;;;;6154194;23;20350;-81
2023/10/04 02:44:09;;;;;;;7.65;4.38;;;;;;;;;;6204845;23;20771;-82
2023/10/04 02:46:35;;;;;;;6.47;4.68;;;;;;;;;;6176407;23;20015;-79
2023/10/04 02:49:03;;;;;;;8.23;5.20;;;;;;;;;;6172694;23;20020;-79
2023/10/04 02:51:29;;;;;;;11.00;5.35;;;;;;;;;;6152139;23;20571;-78
2023/10/04 02:53:56;;;;;;;6.65;5.35;;;;;;;;;;6176460;23;20046;-79
2023/10/04 02:56:23;;;;;;;7.10;4.78;;;;;;;;;;6172435;23;20020;-79
2023/10/04 02:58:50;;;;;;;8.63;5.25;;;;;;;;;;6147258;23;20031;-78
2023/10/04 03:01:26;;;;;;;7.82;4.22;;;;;;;;;;6170686;23;20103;-79
2023/10/04 03:03:55;;;;;;;9.10;5.15;;;;;;;;;;6146993;23;20059;-79
2023/10/04 03:06:24;;;;;;;7.45;4.43;;;;;;;;;;6169995;23;20016;-80
2023/10/04 03:08:56;;;;;;;7.47;5.20;;;;;;;;;;6194549;23;20016;-81
2023/10/04 03:11:46;;;;;;;6.38;5.18;;;;;;;;;;6143947;23;20078;-80
2023/10/04 03:14:12;;;;;;;9.60;4.82;;;;;;;;;;6200743;23;20019;-79
2023/10/04 03:16:42;;;;;;;7.22;4.72;;;;;;;;;;6178274;23;20463;-80
2023/10/04 03:19:14;;;;;;;11.15;5.20;;;;;;;;;;6198540;23;20034;-80
2023/10/04 03:21:45;;;;;;;12.77;4.55;;;;;;;;;;6182833;23;20032;-79
2023/10/04 03:24:11;;;;;;;8.35;5.88;;;;;;;;;;6198689;23;20023;-80
2023/10/04 03:26:39;;;;;;;9.25;4.75;;;;;;;;;;6226721;23;20019;-79
2023/10/04 03:29:07;;;;;;;6.45;4.85;;;;;;;;;;6217017;23;20063;-78
2023/10/04 03:31:34;;;;;;;6.60;5.70;;;;;;;;;;6225086;23;20007;-79
2023/10/04 03:34:00;;;;;;;6.38;5.20;;;;;;;;;;6246908;22;20449;-80
2023/10/04 03:36:29;;;;;;;11.13;5.57;;;;;;;;;;6242616;23;20096;-78
2023/10/04 03:39:03;;;;;;;7.50;4.85;;;;;;;;;;6242773;23;20012;-78
2023/10/04 03:41:30;;;;;;;7.95;4.93;;;;;;;;;;6243240;23;20027;-79
2023/10/04 03:44:05;;;;;;;8.52;5.38;;;;;;;;;;6193775;23;20433;-82
2023/10/04 03:49:23;;;;;;;7.70;5.65;;;;;;;;;;6220931;23;20086;-82
2023/10/04 03:51:52;;;;;;;8.52;4.88;;;;;;;;;;6170176;23;20016;-81
2023/10/04 03:54:19;;;;;;;7.45;6.00;;;;;;;;;;6222405;23;20011;-81
2023/10/04 03:56:49;;;;;;;5.30;4.80;;;;;;;;;;6172610;23;20012;-81
2023/10/04 03:59:16;;;;;;;10.82;5.28;;;;;;;;;;6225046;23;20457;-82
2023/10/04 04:01:42;;;;;;;7.43;4.82;;;;;;;;;;6173802;23;20016;-83
2023/10/04 04:04:14;;;;;;;4.45;3.72;;;;;;;;;;6171751;23;20058;-81
2023/10/04 04:06:40;;;;;;;8.05;6.32;;;;;;;;;;6248835;23;20081;-82
2023/10/04 04:09:09;;;;;;;7.78;6.30;;;;;;;;;;6244418;23;20082;-80
2023/10/04 04:11:35;;;;;;;9.60;5.95;;;;;;;;;;6196555;23;20360;-82
2023/10/04 04:14:04;;;;;;;8.20;5.50;;;;;;;;;;6172191;23;20016;-80
2023/10/04 04:16:30;;;;;;;9.85;5.53;;;;;;;;;;6221294;23;20026;-80
2023/10/04 04:18:59;;;;;;;11.82;6.28;;;;;;;;;;6247816;23;20040;-80
2023/10/04 04:21:33;;;;;;;6.97;4.88;;;;;;;;;;6201136;23;20058;-81
2023/10/04 04:24:01;;;;;;;6.15;5.60;;;;;;;;;;6231762;23;20023;-83
2023/10/04 04:35:30;;;;;;;10.18;5.75;;;;;;;;;;6203616;23;20031;-81
2023/10/04 04:41:04;;;;;;;9.02;4.65;;;;;;;;;;6220758;23;19996;-83
2023/10/04 04:43:38;;;;;;;7.35;6.30;;;;;;;;;;6240652;23;20027;-84
2023/10/04 04:46:13;;;;;;;8.45;6.00;;;;;;;;;;6223387;23;20070;-85
2023/10/04 07:30:35;;;;;;;10.82;6.22;;;;;;;;;;6247328;23;20105;-82
2023/10/04 07:33:03;;;;;;;12.70;6.47;;;;;;;;;;6221263;23;20012;-80
2023/10/04 07:35:40;;;;;;;20.42;7.20;;;;;;;;;;6212207;23;20012;-76
2023/10/04 07:38:06;;;;;;;11.93;6.32;;;;;;;;;;6189759;23;20040;-77
2023/10/04 07:40:35;;;;;;;14.32;6.07;;;;;;;;;;6165341;23;20012;-76
2023/10/04 07:43:01;;;;;;;9.27;5.60;;;;;;;;;;6189844;23;20015;-77
2023/10/04 07:45:28;;;;;;;10.52;6.53;;;;;;;;;;6165058;23;20092;-76
2023/10/04 07:47:58;;;;;;;8.15;5.53;;;;;;;;;;6167808;23;20102;-76
2023/10/04 07:50:47;;;;;;;9.40;6.97;;;;;;;;;;6214059;23;20448;-76
2023/10/04 07:53:21;;;;;;;13.25;6.63;;;;;;;;;;6214157;23;20008;-75
2023/10/04 07:55:58;;;;;;;14.57;6.03;;;;;;;;;;6169718;23;20066;-76
2023/10/04 07:58:39;;;;;;;18.90;6.32;;;;;;;;;;6193641;23;20007;-76
2023/10/04 08:01:10;;;;;;;12.73;6.80;;;;;;;;;;6188877;23;20074;-77
2023/10/04 08:03:39;;;;;;;20.55;6.97;;;;;;;;;;6164185;23;20060;-77
2023/10/04 08:06:11;;;;;;;14.32;6.43;;;;;;;;;;6164410;23;20023;-77
2023/10/04 08:08:41;;;;;;;18.77;5.93;;;;;;;;;;6140900;23;20016;-77
2023/10/04 08:11:08;;;;;;;12.35;6.57;;;;;;;;;;6164617;23;20024;-78
2023/10/04 08:13:34;;;;;;;6.07;5.07;;;;;;;;;;6190316;23;20086;-78
2023/10/04 08:16:14;;;;;;;11.05;6.65;;;;;;;;;;6192143;23;20040;-78
2023/10/04 08:18:40;;;;;;;13.63;6.55;;;;;;;;;;6190599;23;20019;-77
2023/10/04 08:21:06;;;;;;;15.00;7.28;;;;;;;;;;6145125;23;20522;-77
2023/10/04 08:23:33;;;;;;;18.95;5.88;;;;;;;;;;6169587;23;20424;-79
2023/10/04 08:25:59;;;;;;;14.25;6.53;;;;;;;;;;6196375;23;20784;-79
2023/10/04 08:28:26;;;;;;;8.25;6.15;;;;;;;;;;6195214;23;20399;-81
2023/10/04 08:30:52;;;;;;;17.77;7.22;;;;;;;;;;6245770;23;20546;-83
2023/10/04 08:33:31;;;;;;;10.52;5.45;;;;;;;;;;6246244;23;20087;-80
2023/10/04 08:35:57;;;;;;;13.80;6.85;;;;;;;;;;6196670;23;20043;-80
2023/10/04 08:38:25;;;;;;;10.50;6.28;;;;;;;;;;6194064;23;20016;-79
2023/10/04 08:40:53;;;;;;;15.88;5.57;;;;;;;;;;6194023;23;20104;-79
2023/10/04 08:43:19;;;;;;;15.00;7.65;;;;;;;;;;6218602;23;20035;-78
2023/10/04 08:45:46;;;;;;;10.27;6.85;;;;;;;;;;6246867;23;20023;-80
2023/10/04 08:48:13;;;;;;;11.15;6.25;;;;;;;;;;6218906;23;20538;-78
2023/10/04 08:50:39;;;;;;;12.57;5.82;;;;;;;;;;6226413;23;20524;-81
2023/10/04 08:53:11;;;;;;;7.72;5.38;;;;;;;;;;6253058;23;20018;-80
2023/10/04 08:55:37;;;;;;;13.60;6.97;;;;;;;;;;6262472;23;20020;-79
2023/10/04 08:58:04;;;;;;;12.15;6.28;;;;;;;;;;6201529;23;20008;-80
2023/10/04 09:00:30;;;;;;;11.52;6.13;;;;;;;;;;6220483;23;20376;-79
2023/10/04 09:02:56;;;;;;;8.55;5.97;;;;;;;;;;6195376;23;20012;-79
2023/10/04 09:05:23;;;;;;;9.80;5.70;;;;;;;;;;6246239;23;20012;-80
2023/10/04 09:07:50;;;;;;;12.57;6.10;;;;;;;;;;6219328;23;20054;-80
2023/10/04 09:10:16;;;;;;;14.02;6.10;;;;;;;;;;6219212;23;20071;-80
2023/10/04 09:12:42;;;;;;;13.20;7.07;;;;;;;;;;6246425;23;20461;-79
2023/10/04 09:15:10;;;;;;;13.32;6.00;;;;;;;;;;6221991;23;20039;-80
2023/10/04 09:17:43;;;;;;;12.15;6.50;;;;;;;;;;6248354;23;20154;-79
2023/10/04 09:20:13;;;;;;;8.32;5.72;;;;;;;;;;6246997;23;20016;-79
2023/10/04 09:22:39;;;;;;;17.90;7.70;;;;;;;;;;6195051;23;20020;-80
2023/10/04 09:25:05;;;;;;;17.05;5.82;;;;;;;;;;6246454;23;20261;-79
2023/10/04 09:27:31;;;;;;;17.83;6.25;;;;;;;;;;6241375;23;20008;-79
2023/10/04 09:29:59;;;;;;;11.60;7.60;;;;;;;;;;6195805;23;20484;-78
2023/10/04 09:32:35;;;;;;;9.13;6.55;;;;;;;;;;6216739;23;20456;-80
2023/10/04 09:35:01;;;;;;;16.42;7.32;;;;;;;;;;6217007;23;20236;-81
2023/10/04 09:37:28;;;;;;;13.73;6.57;;;;;;;;;;6240889;23;20019;-80
2023/10/04 09:40:07;;;;;;;17.63;6.18;;;;;;;;;;6241998;23;20012;-79
2023/10/04 09:42:51;;;;;;;14.07;6.97;;;;;;;;;;6242020;23;20050;-80
2023/10/04 09:45:20;;;;;;;9.60;6.78;;;;;;;;;;6243558;22;20485;-80
2023/10/04 09:47:50;;;;;;;7.55;5.20;;;;;;;;;;6242187;23;20023;-80
2023/10/04 09:50:23;;;;;;;16.35;6.80;;;;;;;;;;6243072;22;20030;-79
2023/10/04 09:52:49;;;;;;;12.07;6.40;;;;;;;;;;6243833;23;20019;-78
2023/10/04 09:55:15;;;;;;;11.57;6.90;;;;;;;;;;6242153;23;20011;-79
2023/10/04 09:57:42;;;;;;;6.72;5.82;;;;;;;;;;6217008;23;20016;-79
2023/10/04 10:00:17;;;;;;;11.38;6.72;;;;;;;;;;6241750;23;20365;-79
2023/10/04 10:02:47;;;;;;;18.88;7.03;;;;;;;;;;6242444;23;20015;-80
2023/10/04 10:05:19;;;;;;;11.98;6.47;;;;;;;;;;6217058;23;20352;-80
2023/10/04 10:07:45;;;;;;;13.32;6.40;;;;;;;;;;6244453;23;20091;-81
2023/10/04 10:10:12;;;;;;;12.13;6.03;;;;;;;;;;6217631;23;20047;-79
2023/10/04 10:12:38;;;;;;;9.00;6.30;;;;;;;;;;6217566;23;20352;-80
2023/10/04 10:15:05;;;;;;;12.23;6.80;;;;;;;;;;6243241;23;20024;-80
2023/10/04 10:17:33;;;;;;;12.32;6.35;;;;;;;;;;6244100;23;20091;-79
2023/10/04 10:19:59;;;;;;;12.77;6.30;;;;;;;;;;6244749;23;20023;-80
2023/10/04 10:22:26;;;;;;;14.93;6.15;;;;;;;;;;6242477;23;20008;-80
2023/10/04 10:24:59;;;;;;;15.20;7.25;;;;;;;;;;6218228;23;20020;-80
2023/10/04 10:27:27;;;;;;;29.38;6.07;;;;;;;;;;6246136;22;20483;-80
2023/10/04 10:29:53;;;;;;;10.40;6.70;;;;;;;;;;6224472;23;20020;-82
2023/10/04 10:32:20;;;;;;;21.58;6.18;;;;;;;;;;6247410;23;20020;-80
2023/10/04 10:34:51;;;;;;;14.20;6.18;;;;;;;;;;6199992;23;20023;-82
2023/10/04 10:37:18;;;;;;;12.00;5.10;;;;;;;;;;6226023;23;20016;-80
2023/10/04 10:40:14;;;;;;;7.82;5.05;;;;;;;;;;6254428;22;20016;-82
2023/10/04 10:42:59;;;;;;;14.13;6.82;;;;;;;;;;6249907;23;20091;-83
2023/10/04 10:45:28;;;;;;;13.60;5.93;;;;;;;;;;6249487;23;20043;-83
2023/10/04 10:47:56;;;;;;;15.20;6.60;;;;;;;;;;6251090;22;20065;-83
2023/10/04 10:50:35;;;;;;;10.45;6.32;;;;;;;;;;6244832;23;20028;-83
2023/10/04 10:53:05;;;;;;;10.00;7.18;;;;;;;;;;6221254;23;20346;-84
2023/10/04 10:55:35;;;;;;;14.32;5.63;;;;;;;;;;6246356;23;20020;-83
2023/10/04 10:58:01;;;;;;;14.10;5.65;;;;;;;;;;6247343;22;20016;-83
2023/10/04 11:00:32;;;;;;;10.70;5.70;;;;;;;;;;6244271;23;20036;-81
2023/10/04 11:02:58;;;;;;;11.35;6.28;;;;;;;;;;6244881;23;20016;-82
2023/10/04 11:05:25;;;;;;;10.65;6.38;;;;;;;;;;6243770;23;20602;-82
2023/10/04 11:07:52;;;;;;;15.52;5.78;;;;;;;;;;6245886;23;20093;-82
2023/10/04 11:10:20;;;;;;;11.88;5.82;;;;;;;;;;6246391;22;20020;-81
2023/10/04 11:12:46;;;;;;;14.45;6.20;;;;;;;;;;6245276;23;20016;-82
2023/10/04 11:15:12;;;;;;;20.08;5.90;;;;;;;;;;6245920;23;20024;-82
2023/10/04 11:17:38;;;;;;;17.20;6.78;;;;;;;;;;6248553;22;20452;-80
2023/10/04 11:20:09;;;;;;;7.25;5.82;;;;;;;;;;6247554;23;20023;-83
2023/10/04 11:22:36;;;;;;;9.15;6.40;;;;;;;;;;6248161;22;20083;-80
2023/10/04 11:25:02;;;;;;;9.13;5.85;;;;;;;;;;6247173;22;20036;-81
2023/10/04 11:27:30;;;;;;;10.73;5.80;;;;;;;;;;6247133;23;20008;-80
2023/10/04 11:29:56;;;;;;;7.72;5.53;;;;;;;;;;6248133;22;20123;-81
2023/10/04 11:32:22;;;;;;;12.52;6.47;;;;;;;;;;6220269;23;20008;-82
2023/10/04 11:34:49;;;;;;;11.35;6.28;;;;;;;;;;6248363;23;20076;-81
2023/10/04 11:37:15;;;;;;;27.80;7.05;;;;;;;;;;6216049;23;20423;-79
2023/10/04 11:39:43;;;;;;;10.63;5.03;;;;;;;;;;6243034;23;20016;-79
2023/10/04 11:42:21;;;;;;;12.82;5.88;;;;;;;;;;6216164;23;20012;-79
2023/10/04 11:44:48;;;;;;;9.88;5.47;;;;;;;;;;6191132;23;20491;-79
2023/10/04 11:47:15;;;;;;;12.38;5.95;;;;;;;;;;6215833;23;20465;-80
2023/10/04 11:49:53;;;;;;;6.10;5.50;;;;;;;;;;6215583;23;20024;-81
2023/10/04 11:52:21;;;;;;;12.88;6.20;;;;;;;;;;6215959;23;20139;-80
2023/10/04 11:54:47;;;;;;;19.70;6.70;;;;;;;;;;6216226;23;20016;-80
2023/10/04 11:57:27;;;;;;;14.48;6.80;;;;;;;;;;6216008;23;20020;-81
2023/10/04 11:59:57;;;;;;;26.52;7.82;;;;;;;;;;6217411;23;20519;-80
2023/10/04 12:02:25;;;;;;;14.63;5.87;;;;;;;;;;6219376;23;20010;-80
2023/10/04 12:04:52;;;;;;;16.48;7.85;;;;;;;;;;6173067;23;20163;-80
2023/10/04 12:07:18;;;;;;;13.70;6.30;;;;;;;;;;6203014;23;20015;-80
2023/10/04 12:09:44;;;;;;;16.98;6.40;;;;;;;;;;6229193;23;20039;-80
2023/10/04 12:12:16;;;;;;;12.70;6.07;;;;;;;;;;6224905;23;20016;-81
2023/10/04 12:14:43;;;;;;;12.45;5.82;;;;;;;;;;6192703;23;20052;-80
2023/10/04 12:17:09;;;;;;;10.75;6.28;;;;;;;;;;6191793;23;20008;-79
2023/10/04 12:19:35;;;;;;;12.93;6.35;;;;;;;;;;6215688;23;20055;-80
2023/10/04 12:22:02;;;;;;;20.60;6.70;;;;;;;;;;6215533;23;20024;-79
2023/10/04 12:24:32;;;;;;;10.70;5.88;;;;;;;;;;6215775;23;20019;-79
2023/10/04 12:27:01;;;;;;;7.07;5.28;;;;;;;;;;6216866;23;20020;-78
2023/10/04 12:29:30;;;;;;;12.27;5.13;;;;;;;;;;6214730;23;20024;-80
2023/10/04 12:31:56;;;;;;;17.25;4.95;;;;;;;;;;6191930;23;20019;-81
2023/10/04 12:34:27;;;;;;;13.32;5.57;;;;;;;;;;6242031;23;20048;-79
2023/10/04 12:36:53;;;;;;;9.70;5.50;;;;;;;;;;6241774;23;20019;-79
2023/10/04 12:39:21;;;;;;;9.18;5.10;;;;;;;;;;6241496;23;20461;-78
2023/10/04 12:41:50;;;;;;;9.18;6.13;;;;;;;;;;6241467;23;20019;-79
2023/10/04 12:44:18;;;;;;;12.20;5.60;;;;;;;;;;6241332;23;20012;-79
2023/10/04 12:46:44;;;;;;;4.38;3.97;;;;;;;;;;6240810;23;20012;-79
2023/10/04 12:49:10;;;;;;;8.38;5.72;;;;;;;;;;6165050;23;20027;-80
2023/10/04 12:51:36;;;;;;;11.25;5.60;;;;;;;;;;6214852;23;20008;-79
2023/10/04 12:54:03;;;;;;;10.32;5.60;;;;;;;;;;6241388;23;20073;-79
2023/10/04 12:56:29;;;;;;;7.60;4.15;;;;;;;;;;6189530;23;20008;-80
2023/10/04 12:58:55;;;;;;;5.40;4.10;;;;;;;;;;6215001;23;20122;-79
2023/10/04 13:01:22;;;;;;;5.78;4.05;;;;;;;;;;6214848;23;20042;-79
2023/10/04 13:03:48;;;;;;;6.93;4.63;;;;;;;;;;6216710;23;20026;-80
2023/10/04 13:06:14;;;;;;;5.82;4.32;;;;;;;;;;6243953;23;20008;-80
2023/10/04 13:08:41;;;;;;;10.63;4.85;;;;;;;;;;6243657;23;20016;-80
2023/10/04 13:11:11;;;;;;;11.48;5.28;;;;;;;;;;6243134;23;20020;-80
2023/10/04 13:13:40;;;;;;;7.85;5.50;;;;;;;;;;6167056;23;20302;-79
2023/10/04 13:16:07;;;;;;;5.00;4.50;;;;;;;;;;6243689;23;20012;-79
2023/10/04 13:18:34;;;;;;;10.73;4.45;;;;;;;;;;6216074;23;20047;-79
2023/10/04 13:21:00;;;;;;;6.95;5.07;;;;;;;;;;6217115;23;20084;-78
2023/10/04 13:23:27;;;;;;;11.90;5.13;;;;;;;;;;6216220;23;20012;-80
2023/10/04 13:25:53;;;;;;;9.43;5.28;;;;;;;;;;6243393;23;20019;-79
2023/10/04 13:28:22;;;;;;;6.63;4.20;;;;;;;;;;6243155;23;20376;-78
2023/10/04 13:30:49;;;;;;;6.97;4.30;;;;;;;;;;6182531;23;20035;-79
2023/10/04 13:33:15;;;;;;;7.75;5.20;;;;;;;;;;6241783;23;20331;-79
2023/10/04 13:35:41;;;;;;;11.48;4.63;;;;;;;;;;6244672;22;20480;-79
2023/10/04 13:38:07;;;;;;;8.77;5.15;;;;;;;;;;6216634;23;20365;-79
2023/10/04 13:40:35;;;;;;;6.38;5.78;;;;;;;;;;6216126;23;20012;-80
2023/10/04 13:43:02;;;;;;;7.63;4.90;;;;;;;;;;6216926;23;20115;-79
2023/10/04 13:45:29;;;;;;;9.85;5.88;;;;;;;;;;6216673;23;20016;-79
2023/10/04 13:48:03;;;;;;;6.43;5.32;;;;;;;;;;6191981;23;20020;-79
2023/10/04 13:50:42;;;;;;;12.82;5.78;;;;;;;;;;6242311;23;20480;-80
2023/10/04 13:53:10;;;;;;;6.33;5.33;;;;;;;;;;6243140;23;20008;-79
2023/10/04 13:55:39;;;;;;;8.15;5.13;;;;;;;;;;6242351;23;20016;-79
2023/10/04 13:58:08;;;;;;;5.72;5.00;;;;;;;;;;6245669;22;20015;-80
2023/10/04 14:00:43;;;;;;;8.20;5.25;;;;;;;;;;6218105;23;20020;-80
2023/10/04 14:03:10;;;;;;;6.18;5.43;;;;;;;;;;6242767;23;20015;-80
2023/10/04 14:05:36;;;;;;;6.93;5.65;;;;;;;;;;6242555;23;20020;-80
2023/10/04 14:08:02;;;;;;;6.35;5.15;;;;;;;;;;6244004;23;20078;-81
2023/10/04 14:10:28;;;;;;;5.93;5.32;;;;;;;;;;6244402;23;20491;-81
2023/10/04 14:12:55;;;;;;;8.02;5.20;;;;;;;;;;6217489;23;20015;-80
2023/10/04 14:15:22;;;;;;;8.38;5.85;;;;;;;;;;6243844;22;20008;-79
2023/10/04 14:17:51;;;;;;;9.90;5.70;;;;;;;;;;6242478;23;20467;-80
2023/10/04 14:20:17;;;;;;;6.15;4.55;;;;;;;;;;6218046;23;20020;-80
2023/10/04 14:22:44;;;;;;;6.35;5.13;;;;;;;;;;6243347;23;20066;-81
2023/10/04 14:25:12;;;;;;;7.97;6.00;;;;;;;;;;6217807;23;20020;-80
2023/10/04 14:27:40;;;;;;;10.32;5.68;;;;;;;;;;6242858;23;20099;-79
2023/10/04 14:30:10;;;;;;;9.18;5.60;;;;;;;;;;6241829;23;20030;-80
2023/10/04 14:32:37;;;;;;;6.57;5.97;;;;;;;;;;6242496;23;20019;-80
2023/10/04 14:35:03;;;;;;;6.90;5.72;;;;;;;;;;6217567;23;20026;-81
2023/10/04 14:37:30;;;;;;;6.72;5.22;;;;;;;;;;6246210;22;20008;-79
2023/10/04 14:39:58;;;;;;;5.03;4.55;;;;;;;;;;6245659;22;20016;-81
2023/10/04 14:42:24;;;;;;;9.75;5.25;;;;;;;;;;6244358;22;20410;-80
2023/10/04 14:44:51;;;;;;;5.03;4.53;;;;;;;;;;6242843;23;20023;-82
2023/10/04 14:47:17;;;;;;;6.97;4.25;;;;;;;;;;6242562;23;20012;-81
2023/10/04 14:49:44;;;;;;;6.43;5.35;;;;;;;;;;6243853;22;20020;-81
2023/10/04 14:52:10;;;;;;;9.20;4.97;;;;;;;;;;6242896;22;20015;-80
2023/10/04 14:54:37;;;;;;;8.80;5.07;;;;;;;;;;6215624;23;20023;-79
2023/10/04 14:57:02;;;;;;;7.55;5.10;;;;;;;;;;6241203;23;20016;-79
2023/10/04 14:59:28;;;;;;;12.88;5.53;;;;;;;;;;6240994;23;20016;-80
2023/10/04 15:01:55;;;;;;;9.50;4.57;;;;;;;;;;6242786;22;20530;-80
2023/10/04 15:04:21;;;;;;;6.28;5.18;;;;;;;;;;6242906;22;20496;-79
2023/10/04 15:06:47;;;;;;;4.88;4.38;;;;;;;;;;6240877;23;20051;-80
2023/10/04 15:09:14;;;;;;;5.72;5.13;;;;;;;;;;6241031;23;20420;-79
2023/10/04 15:11:40;;;;;;;10.75;9.63;;;;;;;;;;6215908;23;20452;-79
2023/10/04 15:14:06;;;;;;;7.65;4.97;;;;;;;;;;6242233;23;20015;-79
2023/10/04 15:16:35;;;;;;;13.10;5.35;;;;;;;;;;6240993;23;20019;-80
2023/10/04 15:19:01;;;;;;;6.05;4.15;;;;;;;;;;6241274;23;20062;-79
2023/10/04 15:21:29;;;;;;;6.43;5.55;;;;;;;;;;6240539;23;20334;-80
2023/10/04 15:23:55;;;;;;;7.85;4.43;;;;;;;;;;6240802;23;20107;-80
2023/10/04 15:26:22;;;;;;;4.88;4.47;;;;;;;;;;6241464;23;20008;-80
2023/10/04 15:28:49;;;;;;;5.03;4.57;;;;;;;;;;6191497;23;20357;-80
2023/10/04 15:31:17;;;;;;;5.70;5.20;;;;;;;;;;6193333;23;20030;-80
2023/10/04 15:33:45;;;;;;;5.97;4.95;;;;;;;;;;6252757;22;20012;-80
2023/10/04 15:36:13;;;;;;;6.03;4.25;;;;;;;;;;6230472;23;20086;-79
2023/10/04 15:38:40;;;;;;;5.40;4.85;;;;;;;;;;6252618;23;20019;-77
2023/10/04 15:41:06;;;;;;;9.25;5.13;;;;;;;;;;6249019;22;20027;-80
2023/10/04 15:43:32;;;;;;;6.18;4.78;;;;;;;;;;6241388;23;20364;-78
2023/10/04 15:45:58;;;;;;;8.35;4.75;;;;;;;;;;6241409;23;20087;-80
2023/10/04 15:48:24;;;;;;;4.43;3.75;;;;;;;;;;6241689;23;20094;-79
2023/10/04 15:50:51;;;;;;;6.00;4.50;;;;;;;;;;6242030;23;20478;-79
2023/10/04 15:53:17;;;;;;;7.72;4.80;;;;;;;;;;6242144;23;20046;-79
2023/10/04 15:55:43;;;;;;;4.53;4.13;;;;;;;;;;6190439;23;20019;-80
2023/10/04 15:58:09;;;;;;;3.92;3.50;;;;;;;;;;6240550;23;20027;-79
2023/10/04 16:00:42;;;;;;;5.78;4.70;;;;;;;;;;6215058;23;20412;-79
2023/10/04 16:03:12;;;;;;;9.63;3.95;;;;;;;;;;6242262;22;20012;-79
2023/10/04 16:05:38;;;;;;;3.97;3.67;;;;;;;;;;6240443;23;20087;-80
2023/10/04 16:08:05;;;;;;;4.85;4.07;;;;;;;;;;6215324;23;20008;-79
2023/10/04 16:10:31;;;;;;;5.25;3.40;;;;;;;;;;6241881;22;20399;-79
2023/10/04 16:12:57;;;;;;;3.90;3.50;;;;;;;;;;6242565;23;20499;-80
2023/10/04 16:15:23;;;;;;;5.05;3.33;;;;;;;;;;6240939;23;20016;-80
2023/10/04 16:17:49;;;;;;;7.20;4.60;;;;;;;;;;6240782;23;20030;-80
2023/10/04 16:20:15;;;;;;;4.43;4.03;;;;;;;;;;6241023;23;20012;-79
2023/10/04 16:22:42;;;;;;;3.17;2.75;;;;;;;;;;6241906;23;20012;-80
2023/10/04 16:25:13;;;;;;;2.45;2.20;;;;;;;;;;6241159;23;20035;-80
2023/10/04 16:27:43;;;;;;;4.30;3.78;;;;;;;;;;6215553;23;20008;-79
2023/10/04 16:30:09;;;;;;;3.65;2.95;;;;;;;;;;6241822;22;20031;-80
2023/10/04 16:32:35;;;;;;;4.72;3.30;;;;;;;;;;6214937;23;20539;-81
2023/10/04 16:35:01;;;;;;;4.80;3.97;;;;;;;;;;6215606;23;20023;-79
2023/10/04 16:37:30;;;;;;;4.45;3.72;;;;;;;;;;6243159;23;20066;-80
2023/10/04 16:39:57;;;;;;;4.78;3.67;;;;;;;;;;6217162;23;20020;-80
2023/10/04 16:42:23;;;;;;;4.45;3.33;;;;;;;;;;6217547;23;20012;-79
2023/10/04 16:44:51;;;;;;;4.95;3.70;;;;;;;;;;6193732;23;20099;-80
2023/10/04 16:47:18;;;;;;;3.97;3.60;;;;;;;;;;6243749;23;20089;-79
2023/10/04 16:49:44;;;;;;;3.53;3.20;;;;;;;;;;6216468;23;20476;-79
2023/10/04 16:52:10;;;;;;;4.93;3.90;;;;;;;;;;6244178;23;20012;-79
2023/10/04 16:54:36;;;;;;;5.10;3.70;;;;;;;;;;6166592;23;20019;-79
2023/10/04 16:57:04;;;;;;;5.07;3.40;;;;;;;;;;6243737;23;20094;-79
2023/10/04 16:59:30;;;;;;;4.93;3.70;;;;;;;;;;6243449;23;20082;-78
2023/10/04 17:01:56;;;;;;;4.95;4.32;;;;;;;;;;6216951;23;20020;-79
2023/10/04 17:04:23;;;;;;;3.60;3.30;;;;;;;;;;6217008;23;20420;-80
2023/10/04 17:06:49;;;;;;;2.63;2.42;;;;;;;;;;6217275;23;20547;-80
2023/10/04 17:09:15;;;;;;;2.80;2.60;;;;;;;;;;6244263;23;20043;-80
2023/10/04 17:11:41;;;;;;;5.38;3.30;;;;;;;;;;6244095;23;20099;-81
2023/10/04 17:14:08;;;;;;;3.40;3.10;;;;;;;;;;6244382;23;20008;-80
2023/10/04 17:16:34;;;;;;;3.80;2.90;;;;;;;;;;6218176;23;20078;-80
2023/10/04 17:19:00;;;;;;;4.63;3.00;;;;;;;;;;6216599;23;20452;-80
2023/10/04 17:21:26;;;;;;;2.88;2.67;;;;;;;;;;6243609;23;20012;-81
2023/10/04 17:23:52;;;;;;;3.72;3.38;;;;;;;;;;6216300;23;20070;-80
2023/10/04 17:26:18;;;;;;;2.10;1.83;;;;;;;;;;6241468;23;20020;-76
2023/10/04 17:28:44;;;;;;;4.45;2.50;;;;;;;;;;6215651;23;20012;-75
2023/10/04 17:31:10;;;;;;;2.83;2.50;;;;;;;;;;6236950;23;20035;-74
2023/10/04 17:33:36;;;;;;;4.97;2.13;;;;;;;;;;6240823;23;20261;-75
2023/10/04 17:36:04;;;;;;;3.75;2.50;;;;;;;;;;6216673;23;20133;-75
2023/10/04 17:38:30;;;;;;;2.60;2.40;;;;;;;;;;6241572;23;20379;-76
2023/10/04 17:40:58;;;;;;;4.75;2.58;;;;;;;;;;6191005;23;20066;-77
2023/10/04 17:43:26;;;;;;;3.20;2.00;;;;;;;;;;6243093;23;20066;-76
2023/10/04 17:45:52;;;;;;;3.38;2.75;;;;;;;;;;6241437;23;20018;-76